createdAt,value
2024-04-09T00:00:23.169Z,9.18
2024-04-09T00:02:51.363Z,8.99
2024-04-09T00:05:25.461Z,8.83
2024-04-09T00:07:53.548Z,8.67
2024-04-09T00:10:26.951Z,8.46
2024-04-09T00:12:56.306Z,8.24
2024-04-09T00:15:27.091Z,8.63
2024-04-09T00:17:56.991Z,8.89
2024-04-09T00:20:31.055Z,8.91
2024-04-09T00:23:00.944Z,8.83
2024-04-09T00:25:34.373Z,8.68
2024-04-09T00:28:04.687Z,8.56
2024-04-09T00:30:35.864Z,8.63
2024-04-09T00:33:04.737Z,8.55
2024-04-09T00:35:35.464Z,8.60
2024-04-09T00:38:08.138Z,8.47
2024-04-09T00:40:43.707Z,8.41
2024-04-09T00:43:14.634Z,8.45
2024-04-09T00:45:45.178Z,8.38
2024-04-09T00:48:18.339Z,8.44
2024-04-09T00:50:46.936Z,8.53
2024-04-09T00:53:19.533Z,8.48
2024-04-09T00:55:51.995Z,8.49
2024-04-09T00:58:25.426Z,8.48
2024-04-09T01:00:54.708Z,8.40
2024-04-09T01:03:26.359Z,8.48
2024-04-09T01:05:55.032Z,8.49
2024-04-09T01:08:26.490Z,8.63
2024-04-09T01:10:57.313Z,8.36
2024-04-09T01:13:28.073Z,8.27
2024-04-09T01:15:56.180Z,8.02
2024-04-09T01:18:27.114Z,7.99
2024-04-09T01:20:55.929Z,7.87
2024-04-09T01:23:29.349Z,7.87
2024-04-09T01:25:57.442Z,7.91
2024-04-09T01:28:29.463Z,7.82
2024-04-09T01:30:57.623Z,7.72
2024-04-09T01:33:29.502Z,7.60
2024-04-09T01:35:57.881Z,7.57
2024-04-09T01:38:31.253Z,7.69
2024-04-09T01:41:00.271Z,7.73
2024-04-09T01:43:31.036Z,7.68
2024-04-09T01:45:59.201Z,7.60
2024-04-09T01:48:30.490Z,7.57
2024-04-09T01:50:58.635Z,7.41
2024-04-09T01:53:32.757Z,7.57
2024-04-09T01:56:01.331Z,7.80
2024-04-09T01:58:32.384Z,7.48
2024-04-09T02:01:05.879Z,7.27
2024-04-09T02:03:36.727Z,7.24
2024-04-09T02:06:04.964Z,7.02
2024-04-09T02:08:38.736Z,6.82
2024-04-09T02:11:06.890Z,7.00
2024-04-09T02:13:37.652Z,7.41
2024-04-09T02:16:10.086Z,7.37
2024-04-09T02:18:41.784Z,7.19
2024-04-09T02:21:12.739Z,7.35
2024-04-09T02:23:47.531Z,7.35
2024-04-09T02:26:15.641Z,7.40
2024-04-09T02:28:46.876Z,7.24
2024-04-09T02:31:14.955Z,7.03
2024-04-09T02:33:47.111Z,7.12
2024-04-09T02:36:16.398Z,7.04
2024-04-09T02:38:49.790Z,7.12
2024-04-09T02:41:18.595Z,7.16
2024-04-09T02:43:49.420Z,7.12
2024-04-09T02:46:17.510Z,7.14
2024-04-09T02:48:48.585Z,7.28
2024-04-09T02:51:16.813Z,7.12
2024-04-09T02:53:50.264Z,7.02
2024-04-09T02:56:18.415Z,6.89
2024-04-09T02:58:49.098Z,6.63
2024-04-09T03:01:17.352Z,6.70
2024-04-09T03:03:48.534Z,6.69
2024-04-09T03:06:17.935Z,6.76
2024-04-09T03:08:51.712Z,6.46
2024-04-09T03:11:21.238Z,5.88
2024-04-09T03:13:53.607Z,5.69
2024-04-09T03:16:24.027Z,5.58
2024-04-09T03:18:56.366Z,5.52
2024-04-09T03:21:25.392Z,5.68
2024-04-09T03:23:58.869Z,5.69
2024-04-09T03:26:27.984Z,5.85
2024-04-09T03:28:58.916Z,5.88
2024-04-09T03:31:27.119Z,6.03
2024-04-09T03:33:58.030Z,6.14
2024-04-09T03:36:26.270Z,6.00
2024-04-09T03:38:59.720Z,5.70
2024-04-09T03:41:31.486Z,5.79
2024-04-09T03:44:01.088Z,5.93
2024-04-09T03:46:32.493Z,5.96
2024-04-09T03:49:00.869Z,5.94
2024-04-09T03:51:32.436Z,6.05
2024-04-09T03:54:03.357Z,5.92
2024-04-09T03:56:34.083Z,5.95
2024-04-09T03:59:02.187Z,6.01
2024-04-09T04:01:32.861Z,5.83
2024-04-09T04:04:03.891Z,5.66
2024-04-09T04:06:32.125Z,5.79
2024-04-09T04:09:05.683Z,5.93
2024-04-09T04:11:33.914Z,5.89
2024-04-09T04:14:04.664Z,5.95
2024-04-09T04:16:32.729Z,5.87
2024-04-09T04:19:03.668Z,5.98
2024-04-09T04:21:31.819Z,6.30
2024-04-09T04:24:05.479Z,6.22
2024-04-09T04:26:33.623Z,6.52
2024-04-09T04:29:04.840Z,6.50
2024-04-09T04:31:32.911Z,6.55
2024-04-09T04:34:03.756Z,6.54
2024-04-09T04:36:32.898Z,6.59
2024-04-09T04:39:09.132Z,6.83
2024-04-09T04:41:37.256Z,6.82
2024-04-09T04:44:08.092Z,6.88
2024-04-09T04:46:36.286Z,6.97
2024-04-09T04:49:07.623Z,6.86
2024-04-09T04:51:35.898Z,7.01
2024-04-09T04:54:09.646Z,7.18
2024-04-09T04:56:37.912Z,7.46
2024-04-09T04:59:08.699Z,7.71
2024-04-09T05:01:36.919Z,7.86
2024-04-09T05:04:08.144Z,8.07
2024-04-09T05:06:36.631Z,8.35
2024-04-09T05:09:13.256Z,8.30
2024-04-09T05:11:41.536Z,8.48
2024-04-09T05:14:12.876Z,8.50
2024-04-09T05:16:41.006Z,8.56
2024-04-09T05:19:12.276Z,8.58
2024-04-09T05:21:40.541Z,8.70
2024-04-09T05:24:14.378Z,8.86
2024-04-09T05:26:42.661Z,9.27
2024-04-09T05:29:13.601Z,9.80
2024-04-09T05:31:44.884Z,10.22
2024-04-09T05:34:17.183Z,10.26
2024-04-09T05:36:45.446Z,10.51
2024-04-09T05:39:18.964Z,10.49
2024-04-09T05:41:47.079Z,10.81
2024-04-09T05:44:17.929Z,10.91
2024-04-09T05:46:46.822Z,11.11
2024-04-09T05:49:21.865Z,11.01
2024-04-09T05:51:50.194Z,10.33
2024-04-09T05:54:23.822Z,10.69
2024-04-09T05:56:52.785Z,10.74
2024-04-09T05:59:23.910Z,10.53
2024-04-09T06:01:52.956Z,10.95
2024-04-09T06:04:23.949Z,11.12
2024-04-09T06:06:52.560Z,11.50
2024-04-09T06:09:25.992Z,11.51
2024-04-09T06:11:54.699Z,11.04
2024-04-09T06:14:25.433Z,11.13
2024-04-09T06:16:55.055Z,11.75
2024-04-09T06:19:26.366Z,11.89
2024-04-09T06:21:54.580Z,12.37
2024-04-09T06:24:27.959Z,12.68
2024-04-09T06:26:56.244Z,12.04
2024-04-09T06:29:27.010Z,11.91
2024-04-09T06:31:56.085Z,12.78
2024-04-09T06:34:27.414Z,12.87
2024-04-09T06:36:55.547Z,13.03
2024-04-09T06:39:29.505Z,13.47
2024-04-09T06:41:58.095Z,13.17
2024-04-09T06:44:28.902Z,13.10
2024-04-09T06:46:57.052Z,13.90
2024-04-09T06:49:28.053Z,14.27
2024-04-09T06:51:56.258Z,14.41
2024-04-09T06:54:29.770Z,14.44
2024-04-09T06:56:58.044Z,14.40
2024-04-09T06:59:28.767Z,14.55
2024-04-09T07:01:56.857Z,14.58
2024-04-09T07:04:28.599Z,14.79
2024-04-09T07:06:56.781Z,14.89
2024-04-09T07:09:30.230Z,15.61
2024-04-09T07:11:58.795Z,15.07
2024-04-09T07:14:29.566Z,16.72
2024-04-09T07:16:57.754Z,17.30
2024-04-09T07:19:28.698Z,17.36
2024-04-09T07:21:56.710Z,17.28
2024-04-09T07:24:30.192Z,16.67
2024-04-09T07:26:58.454Z,16.37
2024-04-09T07:29:30.165Z,16.03
2024-04-09T07:31:58.576Z,15.11
2024-04-09T07:34:30.685Z,15.83
2024-04-09T07:36:58.851Z,16.86
2024-04-09T07:39:32.386Z,17.00
2024-04-09T07:42:00.712Z,16.91
2024-04-09T07:44:31.924Z,17.21
2024-04-09T07:46:59.951Z,17.46
2024-04-09T07:49:32.540Z,17.37
2024-04-09T07:52:00.713Z,18.42
2024-04-09T07:54:34.148Z,18.37
2024-04-09T07:57:02.741Z,18.48
2024-04-09T07:59:33.785Z,19.31
2024-04-09T08:02:02.020Z,18.69
2024-04-09T08:04:33.794Z,18.44
2024-04-09T08:07:02.191Z,17.61
2024-04-09T08:09:36.423Z,18.83
2024-04-09T08:12:06.022Z,18.38
2024-04-09T08:14:36.999Z,18.30
2024-04-09T08:17:05.384Z,18.38
2024-04-09T08:19:36.395Z,18.33
2024-04-09T08:22:04.849Z,18.26
2024-04-09T08:24:38.512Z,19.52
2024-04-09T08:27:06.743Z,19.85
2024-04-09T08:29:39.097Z,18.54
2024-04-09T08:32:07.897Z,19.85
2024-04-09T08:34:38.839Z,19.01
2024-04-09T08:37:08.299Z,20.04
2024-04-09T08:39:41.999Z,20.46
2024-04-09T08:42:10.370Z,19.03
2024-04-09T08:44:42.946Z,19.60
2024-04-09T08:47:12.045Z,20.40
2024-04-09T08:49:43.782Z,20.19
2024-04-09T08:52:13.364Z,20.23
2024-04-09T08:54:50.558Z,20.10
2024-04-09T08:57:19.942Z,20.50
2024-04-09T08:59:51.443Z,21.40
2024-04-09T09:02:19.613Z,20.54
2024-04-09T09:04:50.398Z,20.58
2024-04-09T09:07:19.702Z,22.08
2024-04-09T09:09:53.919Z,20.94
2024-04-09T09:12:22.098Z,20.96
2024-04-09T09:14:53.727Z,22.30
2024-04-09T09:17:22.340Z,23.38
2024-04-09T09:20:04.637Z,22.07
2024-04-09T09:22:37.700Z,21.31
2024-04-09T09:25:18.134Z,21.30
2024-04-09T09:27:46.514Z,20.98
2024-04-09T09:30:18.015Z,21.44
2024-04-09T09:32:50.493Z,22.38
2024-04-09T09:35:22.369Z,22.99
2024-04-09T09:37:52.934Z,23.40
2024-04-09T09:40:29.841Z,23.85
2024-04-09T09:42:59.241Z,24.78
2024-04-09T09:45:30.818Z,22.97
2024-04-09T09:48:00.126Z,23.07
2024-04-09T09:50:31.401Z,22.99
2024-04-09T09:53:00.540Z,22.83
2024-04-09T09:55:35.258Z,23.82
2024-04-09T09:58:04.889Z,22.96
2024-04-09T10:00:38.842Z,23.47
2024-04-09T10:03:07.491Z,24.68
2024-04-09T10:05:38.956Z,24.46
2024-04-09T10:08:16.374Z,24.32
2024-04-09T10:10:52.382Z,23.50
2024-04-09T10:13:22.850Z,23.99
2024-04-09T10:15:54.105Z,23.60
2024-04-09T10:18:29.930Z,22.89
2024-04-09T10:21:01.377Z,23.21
2024-04-09T10:23:29.670Z,22.85
2024-04-09T10:26:04.181Z,22.74
2024-04-09T10:28:34.907Z,22.80
2024-04-09T10:31:07.788Z,23.25
2024-04-09T10:33:37.549Z,23.55
2024-04-09T10:36:09.792Z,24.25
2024-04-09T10:38:38.848Z,24.49
2024-04-09T10:41:13.896Z,24.96
2024-04-09T10:43:42.934Z,24.62
2024-04-09T10:46:15.861Z,24.38
2024-04-09T10:48:45.780Z,25.43
2024-04-09T10:51:19.940Z,24.85
2024-04-09T10:53:50.669Z,24.62
2024-04-09T10:56:24.648Z,23.47
2024-04-09T10:58:53.154Z,24.08
2024-04-09T11:01:24.222Z,24.98
2024-04-09T11:03:53.032Z,26.78
2024-04-09T11:06:25.542Z,25.76
2024-04-09T11:08:53.691Z,26.20
2024-04-09T11:11:27.233Z,26.77
2024-04-09T11:13:56.252Z,26.08
2024-04-09T11:16:27.047Z,25.40
2024-04-09T11:18:58.482Z,24.97
2024-04-09T11:21:31.450Z,25.84
2024-04-09T11:23:59.989Z,24.63
2024-04-09T11:26:33.750Z,25.42
2024-04-09T11:29:01.920Z,25.66
2024-04-09T11:31:34.034Z,25.90
2024-04-09T11:34:02.534Z,25.54
2024-04-09T11:36:33.959Z,25.85
2024-04-09T11:39:02.305Z,25.50
2024-04-09T11:41:35.998Z,24.97
2024-04-09T11:44:05.010Z,25.51
2024-04-09T11:46:36.130Z,26.49
2024-04-09T11:49:04.507Z,27.08
2024-04-09T11:51:35.389Z,27.37
2024-04-09T11:54:04.725Z,27.61
2024-04-09T11:56:40.487Z,27.54
2024-04-09T11:59:08.607Z,27.37
2024-04-09T12:01:39.444Z,26.97
2024-04-09T12:04:09.013Z,27.00
2024-04-09T12:06:40.111Z,27.35
2024-04-09T12:09:09.328Z,26.61
2024-04-09T12:11:43.037Z,25.75
2024-04-09T12:14:11.660Z,25.83
2024-04-09T12:16:45.024Z,26.31
2024-04-09T12:19:13.511Z,26.89
2024-04-09T12:21:44.931Z,26.95
2024-04-09T12:24:13.422Z,26.12
2024-04-09T12:26:46.813Z,26.78
2024-04-09T12:29:14.977Z,26.13
2024-04-09T12:31:45.901Z,26.89
2024-04-09T12:34:14.101Z,26.47
2024-04-09T12:36:45.046Z,26.72
2024-04-09T12:39:13.277Z,26.94
2024-04-09T12:41:47.576Z,26.16
2024-04-09T12:44:15.792Z,26.02
2024-04-09T12:46:46.782Z,26.05
2024-04-09T12:49:27.442Z,26.55
2024-04-09T12:52:03.490Z,26.13
2024-04-09T12:54:32.702Z,26.97
2024-04-09T12:57:06.919Z,26.31
2024-04-09T13:02:16.978Z,27.13
2024-04-09T13:04:45.464Z,27.39
2024-04-09T13:07:16.517Z,27.35
2024-04-09T13:09:44.770Z,26.61
2024-04-09T13:12:18.340Z,26.60
2024-04-09T13:17:20.933Z,27.35
2024-04-09T13:19:49.361Z,27.47
2024-04-09T13:22:20.559Z,27.84
2024-04-09T13:24:48.620Z,27.22
2024-04-09T13:27:22.055Z,26.71
2024-04-09T13:29:50.238Z,26.89
2024-04-09T13:32:23.769Z,27.84
2024-04-09T13:34:52.237Z,27.09
2024-04-09T13:37:23.022Z,25.94
2024-04-09T13:39:51.935Z,26.04
2024-04-09T13:42:25.760Z,25.76
2024-04-09T13:44:53.926Z,25.46
2024-04-09T13:47:24.853Z,25.95
2024-04-09T13:49:53.133Z,26.53
2024-04-09T13:52:23.911Z,26.32
2024-04-09T13:54:52.091Z,27.48
2024-04-09T13:57:25.439Z,27.76
2024-04-09T13:59:53.707Z,27.39
2024-04-09T14:02:25.050Z,26.72
2024-04-09T14:04:53.509Z,27.57
2024-04-09T14:07:24.380Z,27.36
2024-04-09T14:09:52.562Z,26.89
2024-04-09T14:12:26.268Z,26.72
2024-04-09T14:14:56.008Z,26.30
2024-04-09T14:17:36.852Z,26.50
2024-04-09T14:20:10.041Z,25.45
2024-04-09T14:22:41.508Z,25.08
2024-04-09T14:25:10.004Z,25.04
2024-04-09T14:27:43.510Z,24.79
2024-04-09T14:30:11.864Z,25.13
2024-04-09T14:32:42.884Z,25.03
2024-04-09T14:35:11.350Z,24.90
2024-04-09T14:37:42.191Z,24.72
2024-04-09T14:40:11.497Z,24.96
2024-04-09T14:42:44.943Z,25.60
2024-04-09T14:45:13.576Z,26.11
2024-04-09T14:47:44.470Z,26.40
2024-04-09T14:50:12.851Z,26.62
2024-04-09T14:52:43.828Z,25.42
2024-04-09T14:55:12.239Z,24.77
2024-04-09T14:57:45.806Z,24.81
2024-04-09T15:00:14.997Z,24.44
2024-04-09T15:02:45.830Z,24.36
2024-04-09T15:05:15.067Z,24.82
2024-04-09T15:07:45.991Z,25.30
2024-04-09T15:10:14.264Z,24.95
2024-04-09T15:12:49.335Z,25.34
2024-04-09T15:15:19.136Z,25.44
2024-04-09T15:17:50.145Z,25.14
2024-04-09T15:20:18.391Z,24.94
2024-04-09T15:22:51.146Z,24.29
2024-04-09T15:25:20.700Z,23.88
2024-04-09T15:27:54.713Z,23.93
2024-04-09T15:30:22.851Z,24.00
2024-04-09T15:32:54.913Z,23.94
2024-04-09T15:35:23.415Z,23.85
2024-04-09T15:37:55.237Z,23.74
2024-04-09T15:40:24.929Z,23.36
2024-04-09T15:42:58.429Z,23.94
2024-04-09T15:45:26.561Z,23.46
2024-04-09T15:47:58.073Z,23.05
2024-04-09T15:50:26.427Z,22.76
2024-04-09T15:52:57.240Z,22.97
2024-04-09T15:55:26.051Z,22.62
2024-04-09T15:57:59.488Z,23.04
2024-04-09T16:00:27.731Z,23.00
2024-04-09T16:02:58.494Z,23.36
2024-04-09T16:05:28.075Z,23.30
2024-04-09T16:07:59.000Z,23.45
2024-04-09T16:10:27.850Z,23.60
2024-04-09T16:13:01.246Z,22.45
2024-04-09T16:15:29.394Z,22.23
2024-04-09T16:18:00.671Z,21.97
2024-04-09T16:20:29.652Z,22.10
2024-04-09T16:23:00.603Z,21.70
2024-04-09T16:25:28.809Z,21.39
2024-04-09T16:28:02.371Z,21.38
2024-04-09T16:30:30.702Z,21.69
2024-04-09T16:33:01.842Z,21.98
2024-04-09T16:35:30.244Z,22.13
2024-04-09T16:38:02.470Z,22.08
2024-04-09T16:40:30.569Z,22.13
2024-04-09T16:43:04.592Z,20.79
2024-04-09T16:45:32.780Z,20.51
2024-04-09T16:48:05.983Z,20.26
2024-04-09T16:50:34.705Z,20.66
2024-04-09T16:53:05.529Z,20.60
2024-04-09T16:55:33.679Z,20.86
2024-04-09T16:58:11.951Z,20.91
2024-04-09T17:00:40.259Z,20.00
2024-04-09T17:03:11.310Z,19.70
2024-04-09T17:05:39.630Z,19.66
2024-04-09T17:08:13.340Z,19.95
2024-04-09T17:10:44.763Z,19.67
2024-04-09T17:13:18.215Z,19.52
2024-04-09T17:15:46.363Z,19.18
2024-04-09T17:18:17.600Z,18.85
2024-04-09T17:20:46.462Z,18.60
2024-04-09T17:23:18.436Z,19.07
2024-04-09T17:25:46.743Z,19.15
2024-04-09T17:28:20.219Z,19.25
2024-04-09T17:30:53.430Z,19.05
2024-04-09T17:33:24.404Z,19.03
2024-04-09T17:35:52.840Z,18.98
2024-04-09T17:38:23.807Z,18.86
2024-04-09T17:40:52.100Z,18.87
2024-04-09T17:43:25.674Z,18.72
2024-04-09T17:45:57.803Z,18.78
2024-04-09T17:48:29.141Z,18.65
2024-04-09T17:50:58.438Z,18.32
2024-04-09T17:53:31.483Z,18.43
2024-04-09T17:56:00.307Z,18.54
2024-04-09T17:58:33.774Z,18.41
2024-04-09T18:01:07.343Z,18.38
2024-04-09T18:03:43.830Z,18.32
2024-04-09T18:06:12.814Z,18.34
2024-04-09T18:08:45.882Z,18.21
2024-04-09T18:11:14.307Z,18.02
2024-04-09T18:13:47.794Z,18.23
2024-04-09T18:16:15.955Z,18.04
2024-04-09T18:18:47.809Z,17.87
2024-04-09T18:21:16.142Z,17.52
2024-04-09T18:23:50.465Z,17.49
2024-04-09T18:26:21.638Z,17.24
2024-04-09T18:28:56.005Z,17.40
2024-04-09T18:31:24.295Z,17.12
2024-04-09T18:33:55.320Z,17.11
2024-04-09T18:36:23.553Z,17.03
2024-04-09T18:38:55.197Z,16.88
2024-04-09T18:41:23.466Z,17.00
2024-04-09T18:43:57.891Z,16.91
2024-04-09T18:46:26.258Z,16.85
2024-04-09T18:48:57.237Z,16.89
2024-04-09T18:51:25.868Z,16.75
2024-04-09T18:53:59.661Z,16.62
2024-04-09T18:56:28.144Z,16.62
2024-04-09T18:59:01.719Z,16.20
2024-04-09T19:01:30.167Z,16.39
2024-04-09T19:04:01.647Z,16.29
2024-04-09T19:06:30.503Z,16.08
2024-04-09T19:09:01.360Z,16.35
2024-04-09T19:11:31.204Z,16.43
2024-04-09T19:14:05.006Z,16.27
2024-04-09T19:16:33.308Z,16.11
2024-04-09T19:19:05.321Z,16.02
2024-04-09T19:21:33.537Z,15.97
2024-04-09T19:24:04.391Z,15.98
2024-04-09T19:26:34.194Z,15.75
2024-04-09T19:29:08.134Z,15.76
2024-04-09T19:31:36.341Z,15.75
2024-04-09T19:34:11.039Z,15.79
2024-04-09T19:36:39.583Z,15.63
2024-04-09T19:39:10.435Z,15.61
2024-04-09T19:41:39.687Z,15.26
2024-04-09T19:44:19.009Z,15.36
2024-04-09T19:46:51.192Z,15.37
2024-04-09T19:49:24.198Z,15.30
2024-04-09T19:51:52.408Z,15.30
2024-04-09T19:54:23.344Z,15.53
2024-04-09T19:56:51.546Z,15.22
2024-04-09T19:59:25.149Z,15.02
2024-04-09T20:01:53.426Z,14.90
2024-04-09T20:04:26.315Z,14.70
2024-04-09T20:06:56.004Z,14.63
2024-04-09T20:09:27.742Z,14.25
2024-04-09T20:11:56.016Z,14.29
2024-04-09T20:14:29.742Z,14.31
2024-04-09T20:16:58.091Z,14.34
2024-04-09T20:19:29.005Z,14.36
2024-04-09T20:21:57.170Z,14.28
2024-04-09T20:24:29.070Z,14.32
2024-04-09T20:26:57.144Z,14.22
2024-04-09T20:29:30.604Z,14.29
2024-04-09T20:31:58.819Z,14.34
2024-04-09T20:34:29.865Z,14.16
2024-04-09T20:36:58.579Z,14.09
2024-04-09T20:39:30.598Z,14.06
2024-04-09T20:41:58.834Z,13.82
2024-04-09T20:44:34.188Z,13.81
2024-04-09T20:47:02.559Z,13.88
2024-04-09T20:49:33.495Z,13.65
2024-04-09T20:52:02.193Z,13.69
2024-04-09T20:54:33.280Z,13.67
2024-04-09T20:57:01.706Z,13.63
2024-04-09T20:59:35.528Z,13.51
2024-04-09T21:02:03.683Z,13.76
2024-04-09T21:04:34.708Z,13.40
2024-04-09T21:07:03.366Z,13.37
2024-04-09T21:09:34.196Z,13.54
2024-04-09T21:12:03.225Z,13.16
2024-04-09T21:14:37.024Z,13.22
2024-04-09T21:17:05.276Z,13.10
2024-04-09T21:19:36.583Z,13.09
2024-04-09T21:22:05.185Z,13.14
2024-04-09T21:24:35.965Z,13.01
2024-04-09T21:27:04.448Z,13.06
2024-04-09T21:29:37.905Z,13.16
2024-04-09T21:32:08.213Z,12.84
2024-04-09T21:34:39.124Z,12.80
2024-04-09T21:37:07.791Z,12.87
2024-04-09T21:39:38.659Z,12.73
2024-04-09T21:42:06.960Z,12.95
2024-04-09T21:44:40.492Z,12.81
2024-04-09T21:47:08.788Z,12.72
2024-04-09T21:49:39.944Z,12.65
2024-04-09T21:52:08.102Z,12.55
2024-04-09T21:54:38.935Z,12.48
2024-04-09T21:57:07.046Z,12.26
2024-04-09T21:59:40.488Z,12.37
2024-04-09T22:02:08.691Z,12.36
2024-04-09T22:04:39.797Z,12.42
2024-04-09T22:07:08.552Z,12.22
2024-04-09T22:09:39.497Z,12.30
2024-04-09T22:12:08.026Z,12.42
2024-04-09T22:14:41.798Z,12.40
2024-04-09T22:17:10.740Z,12.10
2024-04-09T22:19:41.531Z,12.14
2024-04-09T22:22:10.045Z,12.04
2024-04-09T22:24:41.099Z,12.02
2024-04-09T22:27:09.243Z,11.91
2024-04-09T22:29:42.693Z,12.03
2024-04-09T22:32:12.291Z,11.80
2024-04-09T22:34:43.172Z,11.52
2024-04-09T22:37:11.260Z,11.59
2024-04-09T22:39:42.325Z,11.67
2024-04-09T22:42:10.399Z,11.48
2024-04-09T22:44:43.967Z,11.53
2024-04-09T22:47:12.132Z,11.69
2024-04-09T22:49:43.267Z,11.71
2024-04-09T22:52:11.396Z,11.76
2024-04-09T22:54:42.601Z,11.53
2024-04-09T22:57:10.686Z,11.52
2024-04-09T22:59:44.203Z,11.37
2024-04-09T23:02:12.469Z,11.25
2024-04-09T23:04:43.342Z,11.21
2024-04-09T23:07:12.154Z,11.14
2024-04-09T23:09:44.854Z,11.30
2024-04-09T23:12:13.827Z,11.27
2024-04-09T23:14:51.236Z,11.32
2024-04-09T23:17:19.719Z,11.35
2024-04-09T23:19:50.813Z,11.12
2024-04-09T23:22:18.895Z,10.69
2024-04-09T23:24:50.181Z,10.71
2024-04-09T23:27:18.962Z,10.60
2024-04-09T23:29:54.332Z,10.52
2024-04-09T23:32:22.667Z,10.44
2024-04-09T23:34:53.869Z,10.60
2024-04-09T23:37:22.135Z,10.84
2024-04-09T23:39:53.231Z,10.85
2024-04-09T23:42:21.374Z,10.86
2024-04-09T23:44:54.799Z,10.66
2024-04-09T23:47:23.077Z,9.87
2024-04-09T23:49:53.899Z,9.78
2024-04-09T23:52:22.098Z,9.62
2024-04-09T23:54:56.245Z,9.57
2024-04-09T23:57:24.345Z,9.75
2024-04-09T23:59:57.941Z,9.76
